Terminal Aerodrome Forecast
Issued by NWS

Home | Current Version | Previous Version | Text Only | Print | Product List | Glossary On
Versions: 1 2 3 4 5 6 7 8 9 10 11 12 13 14
000
FTUS46 KPDT 210500
TAFRDM
TAF
KRDM 210528Z 2106/2206 23020G30KT P6SM -RA OVC050
     FM211000 27025G35KT P6SM -RA OVC050
     FM211900 28018G28KT P6SM -SHRA OVC050=

USA.gov is the U.S. government's official web portal to all federal, state and local government web resources and services.